Ternholm — OWIM2 — position and weather

sailwx.info

Track history (hours):
 
Tides and Currents Weather Stations Pressure Air Temp Water Temp Dewpoint Dewpoint Depression Visibility Wind Speed Wind Dir Waves Ship Positions

Ternholm

Last reported at 2015-Mar-31 18:26 UTC. Time now 2015-Apr-02 06:34 UTC.
Position N 55°39' E 015°28'.

Length 141 m; draft 8.4 m.

Type: Ship (hazmat cat B). MMSI: 219076000.

Date/timePositionNaut miles runAvg speedWind from/ knotsBaromVisibWave heightAir tempDewpointWater temp
2015-Mar-31 18:26N 55°39' E 015°28'910.8
2015-Mar-31 17:33N 55°35' E 015°13'1111.2
2015-Mar-31 16:33N 55°29' E 014°55'1111.4
2015-Mar-31 15:33N 55°23' E 014°38'1111.4
2015-Mar-31 14:33N 55°14' E 014°26'1111.4
2015-Mar-31 13:33N 55°05' E 014°14'1111.0
2015-Mar-31 12:33N 54°59' E 013°58'1111.0
2015-Mar-31 11:33N 54°56' E 013°40'1110.8
2015-Mar-31 10:33N 54°53' E 013°22'1111.0
2015-Mar-31 09:33N 54°49' E 013°03'1210.7
2015-Mar-31 08:28N 54°46' E 012°44'1011.2
2015-Mar-31 07:33N 54°40' E 012°30'1111.0
2015-Mar-31 06:33N 54°32' E 012°15'10 9.9
2015-Mar-31 05:33N 54°25' E 012°04'1111.1
2015-Mar-31 04:33N 54°25' E 011°45'1111.4
2015-Mar-31 03:33N 54°30' E 011°28'1111.4
2015-Mar-31 02:33N 54°35' E 011°10'122 9.9
2015-Mar-30 14:13N 56°36' E 011°42'811.5
2015-Mar-30 13:33N 56°42' E 011°49'1110.8
2015-Mar-30 12:33N 56°53' E 011°47'1211.5
2015-Mar-30 11:33N 57°04' E 011°39'1111.5
2015-Mar-30 10:33N 57°15' E 011°33'1313.1
2015-Mar-30 09:33N 57°28' E 011°29'1211.6
2015-Mar-30 08:33N 57°38' E 011°41'7 7.4
2015-Mar-30 07:34N 57°41' E 011°52'0 0.0
2015-Mar-30 06:32N 57°41' E 011°52'0 0.0
2015-Mar-30 05:32N 57°41' E 011°52'0 0.0
2015-Mar-30 04:32N 57°41' E 011°52'0 0.0
2015-Mar-30 03:32N 57°41' E 011°52'0 0.0
2015-Mar-30 02:32N 57°41' E 011°52'0 0.0
2015-Mar-30 01:32N 57°41' E 011°52'0 0.0
2015-Mar-30 00:32N 57°41' E 011°52'0 0.0
2015-Mar-29 23:32N 57°41' E 011°52'0 0.0
2015-Mar-29 22:32N 57°41' E 011°52'0 0.0
2015-Mar-29 21:32N 57°41' E 011°52'0 0.0
2015-Mar-29 20:32N 57°41' E 011°52'0 0.0
2015-Mar-29 19:32N 57°41' E 011°52'0 0.0
2015-Mar-29 18:32N 57°41' E 011°52'0 0.0
2015-Mar-29 17:32N 57°41' E 011°52'0 0.0
2015-Mar-29 16:32N 57°41' E 011°52'0 0.0
2015-Mar-29 15:32N 57°41' E 011°52'0 0.0
2015-Mar-29 14:32N 57°41' E 011°52'0 0.0
2015-Mar-29 13:32N 57°41' E 011°52'0 0.0
2015-Mar-29 12:32N 57°41' E 011°52'0 0.0
2015-Mar-29 11:32N 57°41' E 011°52'0 0.0
2015-Mar-29 10:31N 57°41' E 011°52'0 0.0
2015-Mar-29 09:31N 57°41' E 011°52'0 0.0
2015-Mar-29 08:31N 57°41' E 011°52'0 0.0
2015-Mar-29 07:31N 57°41' E 011°52'3 2.9
2015-Mar-29 06:34N 57°40' E 011°48'10 9.9
2015-Mar-29 05:34N 57°35' E 011°32'5 4.7
2015-Mar-29 04:33N 57°31' E 011°26'6 6.3
2015-Mar-29 03:33N 57°25' E 011°28'7 6.5
2015-Mar-29 02:34N 57°19' E 011°32'7 6.5
2015-Mar-29 01:33N 57°13' E 011°37'7 6.7
2015-Mar-29 00:33N 57°06' E 011°41'6 6.4
2015-Mar-28 23:33N 57°00' E 011°45'1111.3
2015-Mar-28 22:34N 56°50' E 011°51'1514.8
2015-Mar-28 21:33N 56°36' E 011°43'7311.7
2015-Mar-28 15:21N 55°34' E 010°33'  
Track history (hours):
 
Tides and Currents Weather Stations Pressure Air Temp Water Temp Dewpoint Dewpoint Depression Visibility Wind Speed Wind Dir Waves Ship Positions

Ternholm

Last reported at 2015-Mar-31 18:26 UTC. Time now 2015-Apr-02 06:34 UTC.
Position N 55°39' E 015°28'.

Length 141 m; draft 8.4 m.

Type: Ship (hazmat cat B). MMSI: 219076000.

Date/timePositionNaut miles runAvg speedWind from/ knotsBaromVisibWave heightAir tempDewpointWater temp
2015-Mar-31 18:26N 55°39' E 015°28'910.8
2015-Mar-31 17:33N 55°35' E 015°13'1111.2
2015-Mar-31 16:33N 55°29' E 014°55'1111.4
2015-Mar-31 15:33N 55°23' E 014°38'1111.4
2015-Mar-31 14:33N 55°14' E 014°26'1111.4
2015-Mar-31 13:33N 55°05' E 014°14'1111.0
2015-Mar-31 12:33N 54°59' E 013°58'1111.0
2015-Mar-31 11:33N 54°56' E 013°40'1110.8
2015-Mar-31 10:33N 54°53' E 013°22'1111.0
2015-Mar-31 09:33N 54°49' E 013°03'1210.7
2015-Mar-31 08:28N 54°46' E 012°44'1011.2
2015-Mar-31 07:33N 54°40' E 012°30'1111.0
2015-Mar-31 06:33N 54°32' E 012°15'10 9.9
2015-Mar-31 05:33N 54°25' E 012°04'1111.1
2015-Mar-31 04:33N 54°25' E 011°45'1111.4
2015-Mar-31 03:33N 54°30' E 011°28'1111.4
2015-Mar-31 02:33N 54°35' E 011°10'122 9.9
2015-Mar-30 14:13N 56°36' E 011°42'811.5
2015-Mar-30 13:33N 56°42' E 011°49'1110.8
2015-Mar-30 12:33N 56°53' E 011°47'1211.5
2015-Mar-30 11:33N 57°04' E 011°39'1111.5
2015-Mar-30 10:33N 57°15' E 011°33'1313.1
2015-Mar-30 09:33N 57°28' E 011°29'1211.6
2015-Mar-30 08:33N 57°38' E 011°41'7 7.4
2015-Mar-30 07:34N 57°41' E 011°52'0 0.0
2015-Mar-30 06:32N 57°41' E 011°52'0 0.0
2015-Mar-30 05:32N 57°41' E 011°52'0 0.0
2015-Mar-30 04:32N 57°41' E 011°52'0 0.0
2015-Mar-30 03:32N 57°41' E 011°52'0 0.0
2015-Mar-30 02:32N 57°41' E 011°52'0 0.0
2015-Mar-30 01:32N 57°41' E 011°52'0 0.0
2015-Mar-30 00:32N 57°41' E 011°52'0 0.0
2015-Mar-29 23:32N 57°41' E 011°52'0 0.0
2015-Mar-29 22:32N 57°41' E 011°52'0 0.0
2015-Mar-29 21:32N 57°41' E 011°52'0 0.0
2015-Mar-29 20:32N 57°41' E 011°52'0 0.0
2015-Mar-29 19:32N 57°41' E 011°52'0 0.0
2015-Mar-29 18:32N 57°41' E 011°52'0 0.0
2015-Mar-29 17:32N 57°41' E 011°52'0 0.0
2015-Mar-29 16:32N 57°41' E 011°52'0 0.0
2015-Mar-29 15:32N 57°41' E 011°52'0 0.0
2015-Mar-29 14:32N 57°41' E 011°52'0 0.0
2015-Mar-29 13:32N 57°41' E 011°52'0 0.0
2015-Mar-29 12:32N 57°41' E 011°52'0 0.0
2015-Mar-29 11:32N 57°41' E 011°52'0 0.0
2015-Mar-29 10:31N 57°41' E 011°52'0 0.0
2015-Mar-29 09:31N 57°41' E 011°52'0 0.0
2015-Mar-29 08:31N 57°41' E 011°52'0 0.0
2015-Mar-29 07:31N 57°41' E 011°52'3 2.9
2015-Mar-29 06:34N 57°40' E 011°48'10 9.9
2015-Mar-29 05:34N 57°35' E 011°32'5 4.7
2015-Mar-29 04:33N 57°31' E 011°26'6 6.3
2015-Mar-29 03:33N 57°25' E 011°28'7 6.5
2015-Mar-29 02:34N 57°19' E 011°32'7 6.5
2015-Mar-29 01:33N 57°13' E 011°37'7 6.7
2015-Mar-29 00:33N 57°06' E 011°41'6 6.4
2015-Mar-28 23:33N 57°00' E 011°45'1111.3
2015-Mar-28 22:34N 56°50' E 011°51'1514.8
2015-Mar-28 21:33N 56°36' E 011°43'7311.7
2015-Mar-28 15:21N 55°34' E 010°33'  

Dump ship's entire track history